Time,TemperatureF,DewpointF,PressureIn,WindDirection,WindDirectionDegrees,WindSpeedMPH,WindSpeedGustMPH,Humidity,HourlyPrecipIn,Conditions,Clouds,dailyrainin,SoftwareType,DateUTC
2013-01-19 00:02:00,30.3,9.0,30.09,SW,235,0.0,0.0,40,0.00,,---,0.00,VWS V14.01,2013-01-19 07:02:00,
2013-01-19 00:07:00,30.3,9.3,30.09,SW,235,0.0,0.0,41,0.00,,---,0.00,VWS V14.01,2013-01-19 07:07:00,
2013-01-19 00:12:00,30.2,9.5,30.09,SW,235,0.0,0.0,41,0.00,,---,0.00,VWS V14.01,2013-01-19 07:12:00,
2013-01-19 00:17:00,30.0,9.2,30.09,SW,235,0.0,0.0,41,0.00,,---,0.00,VWS V14.01,2013-01-19 07:17:00,
2013-01-19 00:22:00,29.8,9.3,30.09,SW,235,0.0,0.0,42,0.00,,---,0.00,VWS V14.01,2013-01-19 07:22:00,
2013-01-19 00:27:00,29.6,9.3,30.10,SW,235,0.0,0.0,42,0.00,,---,0.00,VWS V14.01,2013-01-19 07:27:00,
2013-01-19 00:32:00,29.5,9.4,30.09,SW,235,0.0,0.0,42,0.00,,---,0.00,VWS V14.01,2013-01-19 07:32:00,
2013-01-19 00:37:00,29.3,9.4,30.09,SW,235,0.0,0.0,43,0.00,,---,0.00,VWS V14.01,2013-01-19 07:37:00,
2013-01-19 00:42:00,29.1,9.2,30.09,SW,235,0.0,0.0,43,0.00,,---,0.00,VWS V14.01,2013-01-19 07:42:00,
2013-01-19 00:47:00,29.1,9.5,30.09,SW,235,0.0,0.0,43,0.00,,---,0.00,VWS V14.01,2013-01-19 07:47:00,
2013-01-19 00:52:00,28.9,9.6,30.09,SW,235,0.0,0.0,44,0.00,,---,0.00,VWS V14.01,2013-01-19 07:52:00,
2013-01-19 00:57:00,28.8,9.6,30.09,SW,235,0.0,0.0,44,0.00,,---,0.00,VWS V14.01,2013-01-19 07:57:00,
2013-01-19 01:02:00,28.7,9.6,30.10,SW,235,0.0,0.0,44,0.00,,---,0.00,VWS V14.01,2013-01-19 08:02:00,
2013-01-19 01:07:00,28.5,9.5,30.10,SW,235,0.0,0.0,44,0.00,,---,0.00,VWS V14.01,2013-01-19 08:07:00,
2013-01-19 01:12:00,28.5,9.8,30.10,SW,235,0.0,0.0,45,0.00,,---,0.00,VWS V14.01,2013-01-19 08:12:00,
2013-01-19 01:17:00,28.3,9.7,30.11,SW,235,0.0,0.0,45,0.00,,---,0.00,VWS V14.01,2013-01-19 08:17:00,
2013-01-19 01:22:00,28.2,9.9,30.11,SW,235,0.0,0.0,46,0.00,,---,0.00,VWS V14.01,2013-01-19 08:22:00,
2013-01-19 01:27:00,28.2,10.0,30.11,SW,235,0.0,0.0,46,0.00,,---,0.00,VWS V14.01,2013-01-19 08:27:00,
2013-01-19 01:32:00,28.0,9.8,30.11,SW,235,0.0,0.0,46,0.00,,---,0.00,VWS V14.01,2013-01-19 08:32:00,
2013-01-19 01:37:00,27.8,9.8,30.12,SW,235,0.0,0.0,46,0.00,,---,0.00,VWS V14.01,2013-01-19 08:37:00,
2013-01-19 01:42:00,27.8,10.4,30.12,SW,235,0.0,0.0,47,0.00,,---,0.00,VWS V14.01,2013-01-19 08:42:00,
2013-01-19 01:47:00,27.6,10.0,30.12,SW,235,0.0,0.0,47,0.00,,---,0.00,VWS V14.01,2013-01-19 08:47:00,
2013-01-19 01:52:00,27.6,10.0,30.12,SW,235,0.0,0.0,47,0.00,,---,0.00,VWS V14.01,2013-01-19 08:52:00,
2013-01-19 01:57:00,27.5,9.9,30.12,SW,235,0.0,0.0,47,0.00,,---,0.00,VWS V14.01,2013-01-19 08:57:00,
2013-01-19 02:02:00,27.6,10.0,30.13,SW,235,0.0,0.0,47,0.00,,---,0.00,VWS V14.01,2013-01-19 09:02:00,
2013-01-19 02:07:00,27.7,10.0,30.13,SW,235,0.0,0.0,47,0.00,,---,0.00,VWS V14.01,2013-01-19 09:07:00,
2013-01-19 02:12:00,27.9,10.2,30.14,SW,235,0.0,0.0,47,0.00,,---,0.00,VWS V14.01,2013-01-19 09:12:00,
2013-01-19 02:18:00,27.9,10.2,30.13,SW,235,0.0,0.0,47,0.00,,---,0.00,VWS V14.01,2013-01-19 09:18:00,
2013-01-19 02:23:00,27.9,10.1,30.13,SW,235,0.0,0.0,46,0.00,,---,0.00,VWS V14.01,2013-01-19 09:23:00,
2013-01-19 02:28:00,28.0,10.1,30.13,SW,235,0.0,0.0,46,0.00,,---,0.00,VWS V14.01,2013-01-19 09:28:00,
2013-01-19 02:33:00,28.0,10.2,30.13,SW,235,0.0,0.0,47,0.00,,---,0.00,VWS V14.01,2013-01-19 09:33:00,
2013-01-19 02:38:00,28.2,10.4,30.13,SW,235,0.0,0.0,47,0.00,,---,0.00,VWS V14.01,2013-01-19 09:38:00,
2013-01-19 02:43:00,28.0,9.9,30.14,SW,235,0.0,0.0,46,0.00,,---,0.00,VWS V14.01,2013-01-19 09:43:00,
2013-01-19 02:48:00,28.1,10.1,30.14,SW,235,0.0,0.0,46,0.00,,---,0.00,VWS V14.01,2013-01-19 09:48:00,
2013-01-19 02:53:00,28.1,10.4,30.13,SW,235,0.0,0.0,47,0.00,,---,0.00,VWS V14.01,2013-01-19 09:53:00,
2013-01-19 02:58:00,28.0,10.1,30.12,SW,235,0.0,0.0,46,0.00,,---,0.00,VWS V14.01,2013-01-19 09:58:00,
2013-01-19 03:03:00,28.0,10.3,30.12,SW,235,0.0,0.0,47,0.00,,---,0.00,VWS V14.01,2013-01-19 10:03:00,
2013-01-19 03:08:00,28.0,10.5,30.13,SW,235,0.0,0.0,47,0.00,,---,0.00,VWS V14.01,2013-01-19 10:08:00,
2013-01-19 03:13:00,27.7,10.1,30.12,SW,235,0.0,0.0,47,0.00,,---,0.00,VWS V14.01,2013-01-19 10:13:00,
2013-01-19 03:18:00,27.7,9.8,30.12,SW,235,0.0,0.0,46,0.00,,---,0.00,VWS V14.01,2013-01-19 10:18:00,
2013-01-19 03:23:00,29.0,9.5,30.12,NNW,338,0.0,0.0,43,0.00,,---,0.00,VWS V14.01,2013-01-19 10:23:00,
2013-01-19 03:28:00,31.1,9.7,30.13,NNW,338,0.0,0.0,40,0.00,,---,0.00,VWS V14.01,2013-01-19 10:28:00,
2013-01-19 03:33:00,31.4,10.5,30.13,NNW,338,0.0,0.0,41,0.00,,---,0.00,VWS V14.01,2013-01-19 10:33:00,
2013-01-19 03:38:00,30.9,9.9,30.12,NNW,338,0.0,0.0,41,0.00,,---,0.00,VWS V14.01,2013-01-19 10:38:00,
2013-01-19 03:43:00,31.6,9.1,30.13,WNW,301,7.0,8.9,38,0.00,,---,0.00,VWS V14.01,2013-01-19 10:43:00,
2013-01-19 03:48:00,35.3,9.4,30.13,NW,323,0.0,0.0,33,0.00,,---,0.00,VWS V14.01,2013-01-19 10:48:00,
2013-01-19 03:53:00,37.5,9.4,30.13,North,4,2.7,2.7,31,0.00,,---,0.00,VWS V14.01,2013-01-19 10:53:00,
2013-01-19 03:58:00,38.6,9.1,30.12,NNW,333,0.0,0.0,29,0.00,,---,0.00,VWS V14.01,2013-01-19 10:58:00,
2013-01-19 04:03:00,39.2,8.8,30.12,NNW,333,0.0,0.0,28,0.00,,---,0.00,VWS V14.01,2013-01-19 11:03:00,
2013-01-19 04:08:00,39.6,8.4,30.12,North,1,0.0,3.4,27,0.00,,---,0.00,VWS V14.01,2013-01-19 11:08:00,
2013-01-19 04:13:00,40.0,8.1,30.12,NNE,22,0.0,0.0,26,0.00,,---,0.00,VWS V14.01,2013-01-19 11:13:00,
2013-01-19 05:47:00,28.9,7.8,30.17,NNW,346,0.0,0.0,40,0.00,,---,0.00,VWS V14.01,2013-01-19 12:47:00,
2013-01-19 05:48:00,28.8,7.8,30.17,NNW,346,0.0,0.0,40,0.00,,---,0.00,VWS V14.01,2013-01-19 12:48:00,
2013-01-19 05:53:00,28.5,7.9,30.17,NNW,346,0.0,0.0,41,0.00,,---,0.00,VWS V14.01,2013-01-19 12:53:00,
2013-01-19 05:59:00,28.3,8.1,30.17,NNW,346,0.0,0.0,42,0.00,,---,0.00,VWS V14.01,2013-01-19 12:59:00,
2013-01-19 06:03:00,28.0,8.0,30.18,NNW,346,0.0,0.0,42,0.00,,---,0.00,VWS V14.01,2013-01-19 13:03:00,
2013-01-19 06:09:00,27.7,8.1,30.18,NNW,346,0.0,0.0,43,0.00,,---,0.00,VWS V14.01,2013-01-19 13:09:00,
2013-01-19 06:14:00,27.4,8.3,30.18,NNW,346,0.0,0.0,44,0.00,,---,0.00,VWS V14.01,2013-01-19 13:14:00,
2013-01-19 06:19:00,27.2,8.3,30.18,NNW,346,0.0,0.0,44,0.00,,---,0.00,VWS V14.01,2013-01-19 13:19:00,
2013-01-19 06:24:00,27.0,8.4,30.18,NNW,346,0.0,0.0,45,0.00,,---,0.00,VWS V14.01,2013-01-19 13:24:00,
2013-01-19 06:29:00,26.8,8.6,30.18,NNW,346,0.0,0.0,46,0.00,,---,0.00,VWS V14.01,2013-01-19 13:29:00,
2013-01-19 06:34:00,26.5,8.6,30.19,NNW,346,0.0,0.0,46,0.00,,---,0.00,VWS V14.01,2013-01-19 13:34:00,
2013-01-19 06:39:00,26.3,8.7,30.20,NNW,346,0.0,0.0,47,0.00,,---,0.00,VWS V14.01,2013-01-19 13:39:00,
2013-01-19 06:44:00,26.1,8.8,30.20,NNW,346,0.0,0.0,47,0.00,,---,0.00,VWS V14.01,2013-01-19 13:44:00,
2013-01-19 06:49:00,26.1,9.0,30.20,NNW,346,0.0,0.0,48,0.00,,---,0.00,VWS V14.01,2013-01-19 13:49:00,
2013-01-19 06:54:00,26.0,9.1,30.20,NNW,346,0.0,0.0,48,0.00,,---,0.00,VWS V14.01,2013-01-19 13:54:00,
2013-01-19 06:59:00,25.8,9.0,30.20,NNW,346,0.0,0.0,48,0.00,,---,0.00,VWS V14.01,2013-01-19 13:59:00,
2013-01-19 07:04:00,25.7,9.1,30.21,NNW,346,0.0,0.0,49,0.00,,---,0.00,VWS V14.01,2013-01-19 14:04:00,
2013-01-19 07:09:00,25.6,9.2,30.21,NNW,346,0.0,0.0,49,0.00,,---,0.00,VWS V14.01,2013-01-19 14:09:00,
2013-01-19 07:14:00,25.5,9.2,30.21,NNW,346,0.0,0.0,49,0.00,,---,0.00,VWS V14.01,2013-01-19 14:14:00,
2013-01-19 07:19:00,25.5,9.3,30.22,NNW,346,0.0,0.0,50,0.00,,---,0.00,VWS V14.01,2013-01-19 14:19:00,
2013-01-19 07:24:00,25.5,9.3,30.22,NNW,346,0.0,0.0,50,0.00,,---,0.00,VWS V14.01,2013-01-19 14:24:00,
2013-01-19 07:29:00,25.6,9.3,30.21,NNW,346,0.0,0.0,49,0.00,,---,0.00,VWS V14.01,2013-01-19 14:29:00,
2013-01-19 07:34:00,25.5,9.2,30.22,NNW,346,0.0,0.0,50,0.00,,---,0.00,VWS V14.01,2013-01-19 14:34:00,
2013-01-19 07:39:00,25.4,9.2,30.22,NNW,346,0.0,0.0,50,0.00,,---,0.00,VWS V14.01,2013-01-19 14:39:00,
2013-01-19 07:44:00,25.4,9.4,30.22,NNW,346,0.0,0.0,50,0.00,,---,0.00,VWS V14.01,2013-01-19 14:44:00,
2013-01-19 07:49:00,25.5,9.5,30.22,NNW,346,0.0,0.0,50,0.00,,---,0.00,VWS V14.01,2013-01-19 14:49:00,
2013-01-19 07:54:00,25.7,9.6,30.22,NNW,346,0.0,0.0,50,0.00,,---,0.00,VWS V14.01,2013-01-19 14:54:00,
2013-01-19 07:59:00,25.7,9.5,30.22,NNW,346,0.0,0.0,50,0.00,,---,0.00,VWS V14.01,2013-01-19 14:59:00,
2013-01-19 08:04:00,26.0,9.8,30.23,NNW,346,0.0,0.0,50,0.00,,---,0.00,VWS V14.01,2013-01-19 15:04:00,
2013-01-19 08:09:00,26.1,9.7,30.23,NNW,346,0.0,0.0,49,0.00,,---,0.00,VWS V14.01,2013-01-19 15:09:00,
2013-01-19 08:14:00,26.3,9.8,30.23,NNW,346,0.0,0.0,49,0.00,,---,0.00,VWS V14.01,2013-01-19 15:14:00,
2013-01-19 08:19:00,26.4,9.9,30.24,NNW,346,0.0,0.0,49,0.00,,---,0.00,VWS V14.01,2013-01-19 15:19:00,
2013-01-19 08:24:00,26.6,10.1,30.24,NNW,346,0.0,0.0,49,0.00,,---,0.00,VWS V14.01,2013-01-19 15:24:00,
2013-01-19 08:29:00,26.8,10.2,30.24,NNW,346,0.0,0.0,49,0.00,,---,0.00,VWS V14.01,2013-01-19 15:29:00,
2013-01-19 08:34:00,27.2,10.0,30.25,NNW,346,0.0,0.0,48,0.00,,---,0.00,VWS V14.01,2013-01-19 15:34:00,
2013-01-19 08:39:00,27.9,11.5,30.25,SW,235,6.5,7.6,50,0.00,,---,0.00,VWS V14.01,2013-01-19 15:39:00,
2013-01-19 08:44:00,28.5,10.7,30.25,SSW,198,0.0,0.0,47,0.00,,---,0.00,VWS V14.01,2013-01-19 15:44:00,
2013-01-19 08:49:00,29.1,10.6,30.25,SSW,198,0.0,0.0,45,0.00,,---,0.00,VWS V14.01,2013-01-19 15:49:00,
2013-01-19 08:54:00,29.7,11.0,30.25,SSW,198,0.0,0.0,45,0.00,,---,0.00,VWS V14.01,2013-01-19 15:54:00,
2013-01-19 08:59:00,30.4,11.5,30.25,SSW,198,0.0,0.0,45,0.00,,---,0.00,VWS V14.01,2013-01-19 15:59:00,
2013-01-19 09:04:00,31.1,12.2,30.25,SSW,198,0.0,0.0,45,0.00,,---,0.00,VWS V14.01,2013-01-19 16:04:00,
2013-01-19 09:09:00,31.6,11.5,30.26,SSW,205,0.0,0.0,43,0.00,,---,0.00,VWS V14.01,2013-01-19 16:09:00,
2013-01-19 09:14:00,32.2,12.3,30.26,SSW,205,0.0,0.0,43,0.00,,---,0.00,VWS V14.01,2013-01-19 16:14:00,
2013-01-19 09:19:00,32.8,12.6,30.26,South,177,0.0,0.0,43,0.00,,---,0.00,VWS V14.01,2013-01-19 16:19:00,
2013-01-19 09:24:00,33.3,12.2,30.26,SW,236,0.0,0.0,41,0.00,,---,0.00,VWS V14.01,2013-01-19 16:24:00,
2013-01-19 09:29:00,34.0,12.4,30.26,SSE,165,0.0,0.0,40,0.00,,---,0.00,VWS V14.01,2013-01-19 16:29:00,
2013-01-19 09:34:00,34.6,12.7,30.26,SSE,165,0.0,0.0,40,0.00,,---,0.00,VWS V14.01,2013-01-19 16:34:00,
2013-01-19 09:39:00,35.3,12.3,30.26,SSW,197,0.0,0.0,38,0.00,,---,0.00,VWS V14.01,2013-01-19 16:39:00,
2013-01-19 09:44:00,36.0,12.4,30.27,SW,219,5.4,6.8,37,0.00,,---,0.00,VWS V14.01,2013-01-19 16:44:00,
2013-01-19 09:49:00,36.9,12.8,30.27,SSW,200,0.0,0.0,36,0.00,,---,0.00,VWS V14.01,2013-01-19 16:49:00,
2013-01-19 09:55:00,37.6,12.9,30.27,SSW,200,0.0,0.0,36,0.00,,---,0.00,VWS V14.01,2013-01-19 16:55:00,
2013-01-19 10:00:00,38.4,13.1,30.27,WSW,248,0.0,0.0,35,0.00,,---,0.00,VWS V14.01,2013-01-19 17:00:00,
2013-01-19 10:05:00,38.9,13.4,30.27,WSW,248,0.0,0.0,35,0.00,,---,0.00,VWS V14.01,2013-01-19 17:05:00,
2013-01-19 10:10:00,39.6,13.4,30.27,South,180,0.0,3.5,34,0.00,,---,0.00,VWS V14.01,2013-01-19 17:10:00,
2013-01-19 10:15:00,40.1,13.5,30.26,SW,222,0.0,0.0,33,0.00,,---,0.00,VWS V14.01,2013-01-19 17:15:00,
2013-01-19 10:20:00,40.7,13.4,30.26,SSW,211,0.0,0.0,32,0.00,,---,0.00,VWS V14.01,2013-01-19 17:20:00,
2013-01-19 10:25:00,41.5,13.4,30.26,SW,222,0.0,0.0,31,0.00,,---,0.00,VWS V14.01,2013-01-19 17:25:00,
2013-01-19 10:30:00,42.0,13.4,30.26,SW,222,0.0,0.0,31,0.00,,---,0.00,VWS V14.01,2013-01-19 17:30:00,
2013-01-19 10:35:00,42.7,12.8,30.26,SW,222,0.0,0.0,29,0.00,,---,0.00,VWS V14.01,2013-01-19 17:35:00,
2013-01-19 10:40:00,43.3,12.8,30.25,SSW,193,0.0,4.8,28,0.00,,---,0.00,VWS V14.01,2013-01-19 17:40:00,
2013-01-19 10:45:00,43.8,13.1,30.25,WSW,255,0.0,0.0,28,0.00,,---,0.00,VWS V14.01,2013-01-19 17:45:00,
2013-01-19 10:50:00,44.3,12.1,30.25,South,188,0.0,0.0,27,0.00,,---,0.00,VWS V14.01,2013-01-19 17:50:00,
2013-01-19 10:55:00,44.7,12.3,30.25,WSW,245,0.0,3.2,26,0.00,,---,0.00,VWS V14.01,2013-01-19 17:55:00,
2013-01-19 11:00:00,45.1,11.8,30.25,WSW,245,0.0,0.0,25,0.00,,---,0.00,VWS V14.01,2013-01-19 18:00:00,
2013-01-19 11:05:00,45.6,11.6,30.25,SW,231,0.0,0.0,25,0.00,,---,0.00,VWS V14.01,2013-01-19 18:05:00,
2013-01-19 11:10:00,46.0,11.3,30.24,SW,236,0.0,0.0,24,0.00,,---,0.00,VWS V14.01,2013-01-19 18:10:00,
2013-01-19 11:15:00,46.4,11.1,30.24,SW,236,0.0,0.0,24,0.00,,---,0.00,VWS V14.01,2013-01-19 18:15:00,
2013-01-19 11:20:00,46.9,11.1,30.24,SSW,210,3.4,6.3,23,0.00,,---,0.00,VWS V14.01,2013-01-19 18:20:00,
2013-01-19 11:25:00,47.2,10.9,30.23,WSW,253,0.0,0.0,23,0.00,,---,0.00,VWS V14.01,2013-01-19 18:25:00,
2013-01-19 11:30:00,47.7,10.9,30.23,WSW,253,0.0,2.9,22,0.00,,---,0.00,VWS V14.01,2013-01-19 18:30:00,
2013-01-19 11:36:00,48.2,9.7,30.23,WSW,253,0.0,0.0,21,0.00,,---,0.00,VWS V14.01,2013-01-19 18:36:00,
2013-01-19 11:41:00,48.3,10.6,30.23,WSW,253,0.0,0.0,21,0.00,,---,0.00,VWS V14.01,2013-01-19 18:41:00,
2013-01-19 11:46:00,48.5,9.4,30.22,WSW,253,0.0,0.0,20,0.00,,---,0.00,VWS V14.01,2013-01-19 18:46:00,
2013-01-19 11:52:00,49.3,8.7,30.22,WSW,253,0.0,0.0,19,0.00,,---,0.00,VWS V14.01,2013-01-19 18:52:00,
2013-01-19 11:58:00,49.7,8.9,30.21,WSW,253,0.0,0.0,19,0.00,,---,0.00,VWS V14.01,2013-01-19 18:58:00,
2013-01-19 12:03:00,49.8,9.7,30.21,SSE,167,0.0,0.0,19,0.00,,---,0.00,VWS V14.01,2013-01-19 19:03:00,
2013-01-19 12:08:00,49.9,8.9,30.21,SSE,167,0.0,0.0,19,0.00,,---,0.00,VWS V14.01,2013-01-19 19:08:00,
2013-01-19 12:13:00,50.2,10.0,30.20,West,273,0.0,0.0,19,0.00,,---,0.00,VWS V14.01,2013-01-19 19:13:00,
2013-01-19 12:18:00,50.5,8.7,30.20,South,170,0.0,0.0,18,0.00,,---,0.00,VWS V14.01,2013-01-19 19:18:00,
2013-01-19 12:23:00,50.7,7.6,30.20,South,181,0.0,0.0,17,0.00,,---,0.00,VWS V14.01,2013-01-19 19:23:00,
2013-01-19 12:28:00,51.0,7.1,30.19,South,181,0.0,0.0,16,0.00,,---,0.00,VWS V14.01,2013-01-19 19:28:00,
2013-01-19 12:33:00,51.4,7.1,30.18,North,359,0.0,0.0,16,0.00,,---,0.00,VWS V14.01,2013-01-19 19:33:00,
2013-01-19 12:39:00,51.9,6.6,30.18,SW,228,0.0,0.0,16,0.00,,---,0.00,VWS V14.01,2013-01-19 19:39:00,
2013-01-19 12:44:00,52.2,7.8,30.18,WSW,248,0.0,0.0,16,0.00,,---,0.00,VWS V14.01,2013-01-19 19:44:00,
2013-01-19 12:49:00,52.1,6.5,30.18,WSW,248,0.0,0.0,15,0.00,,---,0.00,VWS V14.01,2013-01-19 19:49:00,
2013-01-19 12:54:00,52.3,5.6,30.18,WSW,248,0.0,0.0,15,0.00,,---,0.00,VWS V14.01,2013-01-19 19:54:00,
2013-01-19 12:59:00,52.7,5.2,30.17,WSW,248,0.0,0.0,14,0.00,,---,0.00,VWS V14.01,2013-01-19 19:59:00,
2013-01-19 13:04:00,53.0,4.0,30.17,WSW,248,0.0,0.0,13,0.00,,---,0.00,VWS V14.01,2013-01-19 20:04:00,
2013-01-19 13:09:00,53.4,4.0,30.17,WSW,249,0.0,0.0,13,0.00,,---,0.00,VWS V14.01,2013-01-19 20:09:00,
2013-01-19 13:14:00,53.6,3.5,30.17,WSW,249,0.0,0.0,13,0.00,,---,0.00,VWS V14.01,2013-01-19 20:14:00,
2013-01-19 13:19:00,53.5,2.5,30.17,WSW,249,0.0,0.0,12,0.00,,---,0.00,VWS V14.01,2013-01-19 20:19:00,
2013-01-19 13:24:00,53.4,2.1,30.17,WSW,249,0.0,0.0,12,0.00,,---,0.00,VWS V14.01,2013-01-19 20:24:00,
2013-01-19 13:29:00,53.6,2.4,30.17,WSW,249,0.0,0.0,12,0.00,,---,0.00,VWS V14.01,2013-01-19 20:29:00,
2013-01-19 13:34:00,53.6,2.6,30.17,WSW,249,0.0,0.0,12,0.00,,---,0.00,VWS V14.01,2013-01-19 20:34:00,
2013-01-19 13:40:00,53.6,1.3,30.17,WSW,249,0.0,0.0,12,0.00,,---,0.00,VWS V14.01,2013-01-19 20:40:00,
2013-01-19 13:45:00,53.7,1.4,30.17,WSW,249,0.0,0.0,12,0.00,,---,0.00,VWS V14.01,2013-01-19 20:45:00,
2013-01-19 13:50:00,53.7,3.2,30.16,SW,235,0.0,0.0,12,0.00,,---,0.00,VWS V14.01,2013-01-19 20:50:00,
2013-01-19 13:55:00,53.5,3.2,30.16,SW,235,0.0,0.0,13,0.00,,---,0.00,VWS V14.01,2013-01-19 20:55:00,
2013-01-19 14:00:00,53.4,2.3,30.16,WSW,246,0.0,0.0,12,0.00,,---,0.00,VWS V14.01,2013-01-19 21:00:00,
2013-01-19 14:06:00,53.4,1.5,30.16,WSW,246,0.0,0.0,12,0.00,,---,0.00,VWS V14.01,2013-01-19 21:06:00,
2013-01-19 14:11:00,53.7,0.1,30.16,WSW,246,0.0,0.0,11,0.00,,---,0.00,VWS V14.01,2013-01-19 21:11:00,
2013-01-19 14:16:00,53.8,0.5,30.16,WSW,246,0.0,0.0,11,0.00,,---,0.00,VWS V14.01,2013-01-19 21:16:00,
2013-01-19 14:21:00,53.6,0.4,30.16,WSW,246,0.0,0.0,11,0.00,,---,0.00,VWS V14.01,2013-01-19 21:21:00,
2013-01-19 14:27:00,53.6,0.8,30.16,WSW,246,0.0,0.0,11,0.00,,---,0.00,VWS V14.01,2013-01-19 21:27:00,
2013-01-19 14:32:00,53.6,0.0,30.16,WSW,246,0.0,0.0,11,0.00,,---,0.00,VWS V14.01,2013-01-19 21:32:00,
2013-01-19 14:37:00,53.5,0.1,30.16,WSW,246,0.0,0.0,11,0.00,,---,0.00,VWS V14.01,2013-01-19 21:37:00,
2013-01-19 14:42:00,53.6,0.8,30.16,WSW,246,0.0,0.0,11,0.00,,---,0.00,VWS V14.01,2013-01-19 21:42:00,
2013-01-19 14:47:00,53.9,-1.0,30.15,North,359,0.0,0.0,10,0.00,,---,0.00,VWS V14.01,2013-01-19 21:47:00,
2013-01-19 14:53:00,54.0,-0.9,30.15,North,359,0.0,0.0,10,0.00,,---,0.00,VWS V14.01,2013-01-19 21:53:00,
2013-01-19 14:58:00,54.1,-0.8,30.15,North,359,0.0,0.0,10,0.00,,---,0.00,VWS V14.01,2013-01-19 21:58:00,
2013-01-19 15:03:00,54.2,-1.2,30.15,North,359,0.0,0.0,10,0.00,,---,0.00,VWS V14.01,2013-01-19 22:03:00,
2013-01-19 15:08:00,54.3,-2.2,30.15,North,359,0.0,0.0,10,0.00,,---,0.00,VWS V14.01,2013-01-19 22:08:00,
2013-01-19 15:13:00,54.3,-2.4,30.15,North,359,0.0,0.0,9,0.00,,---,0.00,VWS V14.01,2013-01-19 22:13:00,
2013-01-19 15:18:00,54.5,-2.9,30.15,North,359,0.0,0.0,9,0.00,,---,0.00,VWS V14.01,2013-01-19 22:18:00,
2013-01-19 15:23:00,54.6,-1.1,30.15,NNW,338,0.0,0.0,10,0.00,,---,0.00,VWS V14.01,2013-01-19 22:23:00,
2013-01-19 15:28:00,54.6,-2.4,30.15,NNW,338,0.0,0.0,9,0.00,,---,0.00,VWS V14.01,2013-01-19 22:28:00,
2013-01-19 15:33:00,54.5,0.7,30.15,NNW,347,0.0,0.0,11,0.00,,---,0.00,VWS V14.01,2013-01-19 22:33:00,
2013-01-19 15:38:00,54.4,-1.5,30.15,NNW,347,0.0,0.0,10,0.00,,---,0.00,VWS V14.01,2013-01-19 22:38:00,
2013-01-19 15:43:00,54.7,-2.1,30.15,NNW,347,0.0,0.0,9,0.00,,---,0.00,VWS V14.01,2013-01-19 22:43:00,
2013-01-19 15:48:00,55.1,-2.5,30.15,NNW,347,0.0,0.0,9,0.00,,---,0.00,VWS V14.01,2013-01-19 22:48:00,
2013-01-19 15:53:00,55.2,-3.3,30.15,NNW,347,0.0,0.0,9,0.00,,---,0.00,VWS V14.01,2013-01-19 22:53:00,
2013-01-19 15:58:00,55.1,-2.2,30.15,NNW,347,0.0,0.0,9,0.00,,---,0.00,VWS V14.01,2013-01-19 22:58:00,
2013-01-19 16:03:00,54.7,-2.5,30.16,NNW,347,0.0,0.0,9,0.00,,---,0.00,VWS V14.01,2013-01-19 23:03:00,
2013-01-19 16:08:00,54.7,-3.7,30.16,NNW,347,0.0,0.0,9,0.00,,---,0.00,VWS V14.01,2013-01-19 23:08:00,
2013-01-19 16:13:00,54.5,-2.7,30.16,NNW,347,0.0,0.0,9,0.00,,---,0.00,VWS V14.01,2013-01-19 23:13:00,
2013-01-19 16:18:00,54.2,-2.9,30.16,NNW,347,0.0,0.0,9,0.00,,---,0.00,VWS V14.01,2013-01-19 23:18:00,
2013-01-19 16:23:00,53.8,-2.6,30.16,NNW,347,0.0,0.0,10,0.00,,---,0.00,VWS V14.01,2013-01-19 23:23:00,
2013-01-19 16:28:00,53.3,-2.3,30.16,NNW,347,0.0,0.0,10,0.00,,---,0.00,VWS V14.01,2013-01-19 23:28:00,
2013-01-19 16:33:00,53.1,-3.1,30.16,NNW,347,0.0,0.0,10,0.00,,---,0.00,VWS V14.01,2013-01-19 23:33:00,
2013-01-19 16:38:00,52.6,-3.1,30.17,NNW,347,0.0,0.0,10,0.00,,---,0.00,VWS V14.01,2013-01-19 23:38:00,
2013-01-19 16:44:00,52.1,-2.8,30.17,NNW,347,0.0,0.0,10,0.00,,---,0.00,VWS V14.01,2013-01-19 23:44:00,
2013-01-19 16:49:00,51.5,-2.7,30.17,NNW,347,0.0,0.0,10,0.00,,---,0.00,VWS V14.01,2013-01-19 23:49:00,
2013-01-19 16:54:00,50.8,-2.6,30.17,NNW,347,0.0,0.0,11,0.00,,---,0.00,VWS V14.01,2013-01-19 23:54:00,
2013-01-19 16:59:00,50.2,-1.7,30.17,NNW,347,0.0,0.0,11,0.00,,---,0.00,VWS V14.01,2013-01-19 23:59:00,
2013-01-19 17:04:00,49.5,-1.7,30.17,NE,34,0.0,0.0,12,0.00,,---,0.00,VWS V14.01,2013-01-20 00:04:00,
2013-01-19 17:09:00,48.7,-1.6,30.17,NE,34,0.0,0.0,12,0.00,,---,0.00,VWS V14.01,2013-01-20 00:09:00,
2013-01-19 17:15:00,48.0,-0.5,30.17,NE,34,0.0,0.0,13,0.00,,---,0.00,VWS V14.01,2013-01-20 00:15:00,
2013-01-19 17:20:00,47.3,-0.7,30.17,NE,34,0.0,0.0,13,0.00,,---,0.00,VWS V14.01,2013-01-20 00:20:00,
2013-01-19 17:25:00,46.8,-1.3,30.18,NE,34,0.0,0.0,13,0.00,,---,0.00,VWS V14.01,2013-01-20 00:25:00,
2013-01-19 17:30:00,46.6,-2.1,30.17,NE,34,0.0,0.0,13,0.00,,---,0.00,VWS V14.01,2013-01-20 00:30:00,
2013-01-19 17:35:00,46.6,-2.6,30.17,NE,34,0.0,0.0,12,0.00,,---,0.00,VWS V14.01,2013-01-20 00:35:00,
2013-01-19 17:40:00,46.5,-2.7,30.17,NE,34,0.0,0.0,12,0.00,,---,0.00,VWS V14.01,2013-01-20 00:40:00,
2013-01-19 17:45:00,46.4,-2.8,30.18,NE,34,0.0,0.0,12,0.00,,---,0.00,VWS V14.01,2013-01-20 00:45:00,
2013-01-19 17:50:00,46.1,-2.8,30.17,NE,34,0.0,0.0,12,0.00,,---,0.00,VWS V14.01,2013-01-20 00:50:00,
2013-01-19 17:56:00,45.8,-2.4,30.17,NE,34,0.0,0.0,13,0.00,,---,0.00,VWS V14.01,2013-01-20 00:56:00,
2013-01-19 18:01:00,45.0,-1.2,30.17,NE,34,0.0,0.0,14,0.00,,---,0.00,VWS V14.01,2013-01-20 01:01:00,
2013-01-19 18:06:00,44.3,1.2,30.17,NE,34,0.0,0.0,16,0.00,,---,0.00,VWS V14.01,2013-01-20 01:06:00,
2013-01-19 18:12:00,43.2,1.1,30.18,NE,34,0.0,0.0,17,0.00,,---,0.00,VWS V14.01,2013-01-20 01:12:00,
2013-01-19 18:17:00,42.3,1.5,30.18,NE,34,0.0,0.0,18,0.00,,---,0.00,VWS V14.01,2013-01-20 01:17:00,
2013-01-19 18:22:00,41.5,2.2,30.18,NE,34,0.0,0.0,19,0.00,,---,0.00,VWS V14.01,2013-01-20 01:22:00,
2013-01-19 18:27:00,41.0,3.2,30.19,NE,34,0.0,0.0,20,0.00,,---,0.00,VWS V14.01,2013-01-20 01:27:00,
2013-01-19 18:32:00,40.4,3.5,30.19,NE,34,0.0,0.0,21,0.00,,---,0.00,VWS V14.01,2013-01-20 01:32:00,
2013-01-19 18:37:00,40.0,4.0,30.19,NE,34,0.0,0.0,22,0.00,,---,0.00,VWS V14.01,2013-01-20 01:37:00,
2013-01-19 18:42:00,39.7,4.2,30.19,NE,34,0.0,0.0,22,0.00,,---,0.00,VWS V14.01,2013-01-20 01:42:00,
2013-01-19 18:48:00,39.4,3.9,30.19,NE,34,0.0,0.0,22,0.00,,---,0.00,VWS V14.01,2013-01-20 01:48:00,
2013-01-19 18:53:00,39.1,4.1,30.19,NE,34,0.0,0.0,23,0.00,,---,0.00,VWS V14.01,2013-01-20 01:53:00,
2013-01-19 18:58:00,38.8,3.9,30.20,NE,34,0.0,0.0,23,0.00,,---,0.00,VWS V14.01,2013-01-20 01:58:00,
2013-01-19 19:03:00,38.6,5.0,30.19,NE,34,0.0,0.0,24,0.00,,---,0.00,VWS V14.01,2013-01-20 02:03:00,
2013-01-19 19:08:00,38.5,5.1,30.20,NE,34,0.0,0.0,24,0.00,,---,0.00,VWS V14.01,2013-01-20 02:08:00,
2013-01-19 19:13:00,38.2,5.6,30.19,NE,34,0.0,0.0,25,0.00,,---,0.00,VWS V14.01,2013-01-20 02:13:00,
2013-01-19 19:18:00,38.0,5.8,30.19,NE,34,0.0,0.0,26,0.00,,---,0.00,VWS V14.01,2013-01-20 02:18:00,
2013-01-19 19:23:00,37.7,6.4,30.19,NE,34,0.0,0.0,27,0.00,,---,0.00,VWS V14.01,2013-01-20 02:23:00,
2013-01-19 19:29:00,37.5,6.4,30.19,NE,34,0.0,0.0,27,0.00,,---,0.00,VWS V14.01,2013-01-20 02:29:00,
2013-01-19 19:34:00,37.4,6.7,30.19,NE,34,0.0,0.0,27,0.00,,---,0.00,VWS V14.01,2013-01-20 02:34:00,
2013-01-19 19:39:00,37.3,6.6,30.19,NE,34,0.0,0.0,27,0.00,,---,0.00,VWS V14.01,2013-01-20 02:39:00,
2013-01-19 19:44:00,37.3,6.8,30.19,NE,34,0.0,0.0,28,0.00,,---,0.00,VWS V14.01,2013-01-20 02:44:00,
2013-01-19 19:49:00,37.4,7.3,30.20,NE,34,0.0,0.0,28,0.00,,---,0.00,VWS V14.01,2013-01-20 02:49:00,
2013-01-19 19:54:00,37.5,8.3,30.20,NE,34,0.0,0.0,29,0.00,,---,0.00,VWS V14.01,2013-01-20 02:54:00,
2013-01-19 19:59:00,37.4,8.1,30.20,NE,34,0.0,0.0,29,0.00,,---,0.00,VWS V14.01,2013-01-20 02:59:00,
2013-01-19 20:04:00,37.4,8.6,30.20,NE,34,0.0,0.0,30,0.00,,---,0.00,VWS V14.01,2013-01-20 03:04:00,
2013-01-19 20:09:00,37.4,8.9,30.20,NE,34,0.0,0.0,30,0.00,,---,0.00,VWS V14.01,2013-01-20 03:09:00,
2013-01-19 20:14:00,37.3,8.6,30.20,NE,34,0.0,0.0,30,0.00,,---,0.00,VWS V14.01,2013-01-20 03:14:00,
2013-01-19 20:19:00,37.0,8.6,30.20,NE,34,0.0,0.0,30,0.00,,---,0.00,VWS V14.01,2013-01-20 03:19:00,
2013-01-19 20:24:00,36.7,8.9,30.20,NE,34,0.0,0.0,31,0.00,,---,0.00,VWS V14.01,2013-01-20 03:24:00,
2013-01-19 20:29:00,36.3,9.1,30.20,NE,34,0.0,0.0,32,0.00,,---,0.00,VWS V14.01,2013-01-20 03:29:00,
2013-01-19 20:34:00,35.8,8.9,30.20,NE,34,0.0,0.0,32,0.00,,---,0.00,VWS V14.01,2013-01-20 03:34:00,
2013-01-19 20:39:00,35.6,9.3,30.20,NE,34,0.0,0.0,33,0.00,,---,0.00,VWS V14.01,2013-01-20 03:39:00,
2013-01-19 20:44:00,35.2,9.3,30.20,NE,34,0.0,0.0,34,0.00,,---,0.00,VWS V14.01,2013-01-20 03:44:00,
2013-01-19 20:50:00,35.1,9.5,30.20,NE,34,0.0,0.0,34,0.00,,---,0.00,VWS V14.01,2013-01-20 03:50:00,
2013-01-19 20:55:00,35.0,9.5,30.19,NE,34,0.0,0.0,34,0.00,,---,0.00,VWS V14.01,2013-01-20 03:55:00,
2013-01-19 21:00:00,34.8,9.7,30.20,NE,34,0.0,0.0,35,0.00,,---,0.00,VWS V14.01,2013-01-20 04:00:00,
2013-01-19 21:05:00,34.7,10.1,30.20,NE,34,0.0,0.0,35,0.00,,---,0.00,VWS V14.01,2013-01-20 04:05:00,
2013-01-19 21:10:00,34.5,10.1,30.20,NE,34,0.0,0.0,36,0.00,,---,0.00,VWS V14.01,2013-01-20 04:10:00,
2013-01-19 21:15:00,34.2,10.2,30.19,NE,34,0.0,0.0,36,0.00,,---,0.00,VWS V14.01,2013-01-20 04:15:00,
2013-01-19 21:20:00,33.7,9.9,30.20,NE,34,0.0,0.0,36,0.00,,---,0.00,VWS V14.01,2013-01-20 04:20:00,
2013-01-19 21:25:00,33.4,10.1,30.19,NE,34,0.0,0.0,37,0.00,,---,0.00,VWS V14.01,2013-01-20 04:25:00,
2013-01-19 21:30:00,33.3,10.1,30.19,NE,34,0.0,0.0,37,0.00,,---,0.00,VWS V14.01,2013-01-20 04:30:00,
2013-01-19 21:35:00,33.2,10.3,30.20,NE,34,0.0,0.0,38,0.00,,---,0.00,VWS V14.01,2013-01-20 04:35:00,
2013-01-19 21:40:00,33.2,10.4,30.20,NE,34,0.0,0.0,38,0.00,,---,0.00,VWS V14.01,2013-01-20 04:40:00,
2013-01-19 21:45:00,33.0,10.4,30.19,NE,34,0.0,0.0,38,0.00,,---,0.00,VWS V14.01,2013-01-20 04:45:00,
2013-01-19 21:50:00,32.9,10.6,30.19,NE,34,0.0,0.0,39,0.00,,---,0.00,VWS V14.01,2013-01-20 04:50:00,
2013-01-19 21:55:00,32.5,10.3,30.19,NE,34,0.0,0.0,39,0.00,,---,0.00,VWS V14.01,2013-01-20 04:55:00,
2013-01-19 22:01:00,32.3,10.5,30.19,NE,34,0.0,0.0,40,0.00,,---,0.00,VWS V14.01,2013-01-20 05:01:00,
2013-01-19 22:03:00,32.1,10.4,30.19,NE,34,0.0,0.0,40,0.00,,---,0.00,VWS V14.01,2013-01-20 05:03:00,
2013-01-19 22:08:00,31.9,10.5,30.18,NE,34,0.0,0.0,40,0.00,,---,0.00,VWS V14.01,2013-01-20 05:08:00,
2013-01-19 22:13:00,31.8,10.5,30.18,NE,34,0.0,0.0,40,0.00,,---,0.00,VWS V14.01,2013-01-20 05:13:00,
2013-01-19 22:18:00,31.6,10.5,30.18,NE,34,0.0,0.0,41,0.00,,---,0.00,VWS V14.01,2013-01-20 05:18:00,
2013-01-19 22:23:00,31.3,10.6,30.18,NE,34,0.0,0.0,41,0.00,,---,0.00,VWS V14.01,2013-01-20 05:23:00,
2013-01-19 22:28:00,31.1,10.6,30.18,NE,34,0.0,0.0,42,0.00,,---,0.00,VWS V14.01,2013-01-20 05:28:00,
2013-01-19 22:33:00,31.1,10.7,30.18,NE,34,0.0,0.0,42,0.00,,---,0.00,VWS V14.01,2013-01-20 05:33:00,
2013-01-19 22:38:00,30.8,10.6,30.18,NE,34,0.0,0.0,42,0.00,,---,0.00,VWS V14.01,2013-01-20 05:38:00,
2013-01-19 22:43:00,30.5,10.6,30.18,NE,34,0.0,0.0,43,0.00,,---,0.00,VWS V14.01,2013-01-20 05:43:00,
2013-01-19 22:48:00,30.3,10.7,30.18,NE,34,0.0,0.0,43,0.00,,---,0.00,VWS V14.01,2013-01-20 05:48:00,
2013-01-19 22:53:00,30.3,10.6,30.18,NE,34,0.0,0.0,43,0.00,,---,0.00,VWS V14.01,2013-01-20 05:53:00,
2013-01-19 22:58:00,30.1,10.6,30.17,NE,34,0.0,0.0,44,0.00,,---,0.00,VWS V14.01,2013-01-20 05:58:00,
2013-01-19 23:03:00,30.0,10.6,30.17,NE,34,0.0,0.0,44,0.00,,---,0.00,VWS V14.01,2013-01-20 06:03:00,
2013-01-19 23:08:00,29.8,10.6,30.17,NE,34,0.0,0.0,44,0.00,,---,0.00,VWS V14.01,2013-01-20 06:08:00,
2013-01-19 23:13:00,29.7,10.6,30.17,NE,34,0.0,0.0,44,0.00,,---,0.00,VWS V14.01,2013-01-20 06:13:00,
2013-01-19 23:18:00,29.3,10.3,30.17,NE,34,0.0,0.0,44,0.00,,---,0.00,VWS V14.01,2013-01-20 06:18:00,
2013-01-19 23:23:00,29.0,10.3,30.17,NE,34,0.0,0.0,45,0.00,,---,0.00,VWS V14.01,2013-01-20 06:23:00,
2013-01-19 23:28:00,28.9,10.4,30.17,NE,34,0.0,0.0,45,0.00,,---,0.00,VWS V14.01,2013-01-20 06:28:00,
2013-01-19 23:33:00,28.9,10.4,30.17,NE,34,0.0,0.0,45,0.00,,---,0.00,VWS V14.01,2013-01-20 06:33:00,
2013-01-19 23:38:00,28.8,10.6,30.17,NE,34,0.0,0.0,46,0.00,,---,0.00,VWS V14.01,2013-01-20 06:38:00,
2013-01-19 23:43:00,28.7,10.6,30.17,NE,34,0.0,0.0,46,0.00,,---,0.00,VWS V14.01,2013-01-20 06:43:00,
2013-01-19 23:48:00,28.5,10.7,30.17,NE,34,0.0,0.0,47,0.00,,---,0.00,VWS V14.01,2013-01-20 06:48:00,
2013-01-19 23:53:00,28.6,10.9,30.17,NE,34,0.0,0.0,47,0.00,,---,0.00,VWS V14.01,2013-01-20 06:53:00,
2013-01-19 23:58:00,28.1,10.6,30.17,NE,34,0.0,0.0,47,0.00,,---,0.00,VWS V14.01,2013-01-20 06:58:00,
2013-01-19 23:59:00,30.4,8.9,30.09,SW,235,0.0,0.0,40,0.00,,---,5.21,VWS V14.01,2013-01-20 06:59:00,